sensor_id;sensor_type;location;lat;lon;timestamp;P1;durP1;ratioP1;P2;durP2;ratioP2
3997;SDS011;61314;53.444;9.902;2024-03-02T00:00:08;25.77;;;17.20;;
3997;SDS011;61314;53.444;9.902;2024-03-02T00:02:41;25.80;;;15.75;;
3997;SDS011;61314;53.444;9.902;2024-03-02T00:05:12;28.17;;;18.17;;
3997;SDS011;61314;53.444;9.902;2024-03-02T00:07:41;25.83;;;17.25;;
3997;SDS011;61314;53.444;9.902;2024-03-02T00:10:09;33.30;;;17.60;;
3997;SDS011;61314;53.444;9.902;2024-03-02T00:12:40;28.95;;;18.30;;
3997;SDS011;61314;53.444;9.902;2024-03-02T00:17:52;27.52;;;18.13;;
3997;SDS011;61314;53.444;9.902;2024-03-02T00:20:21;25.42;;;17.60;;
3997;SDS011;61314;53.444;9.902;2024-03-02T00:22:49;32.83;;;20.20;;
3997;SDS011;61314;53.444;9.902;2024-03-02T00:25:17;29.45;;;18.65;;
3997;SDS011;61314;53.444;9.902;2024-03-02T00:27:47;27.65;;;19.02;;
3997;SDS011;61314;53.444;9.902;2024-03-02T00:33:02;26.20;;;18.60;;
3997;SDS011;61314;53.444;9.902;2024-03-02T00:35:29;34.70;;;20.00;;
3997;SDS011;61314;53.444;9.902;2024-03-02T00:37:56;28.48;;;18.00;;
3997;SDS011;61314;53.444;9.902;2024-03-02T00:40:26;31.05;;;19.27;;
3997;SDS011;61314;53.444;9.902;2024-03-02T00:42:55;29.60;;;19.63;;
3997;SDS011;61314;53.444;9.902;2024-03-02T00:45:23;32.88;;;21.00;;
3997;SDS011;61314;53.444;9.902;2024-03-02T00:47:51;31.70;;;19.77;;
3997;SDS011;61314;53.444;9.902;2024-03-02T00:50:18;32.38;;;20.33;;
3997;SDS011;61314;53.444;9.902;2024-03-02T00:52:55;34.88;;;21.85;;
3997;SDS011;61314;53.444;9.902;2024-03-02T00:55:23;32.13;;;20.60;;
3997;SDS011;61314;53.444;9.902;2024-03-02T00:57:50;29.85;;;19.50;;
3997;SDS011;61314;53.444;9.902;2024-03-02T01:00:17;40.72;;;20.83;;
3997;SDS011;61314;53.444;9.902;2024-03-02T01:02:44;39.97;;;22.30;;
3997;SDS011;61314;53.444;9.902;2024-03-02T01:05:12;39.75;;;22.13;;
3997;SDS011;61314;53.444;9.902;2024-03-02T01:07:39;40.08;;;22.40;;
3997;SDS011;61314;53.444;9.902;2024-03-02T01:10:06;36.85;;;23.17;;
3997;SDS011;61314;53.444;9.902;2024-03-02T01:12:35;36.60;;;23.08;;
3997;SDS011;61314;53.444;9.902;2024-03-02T01:15:03;43.58;;;25.02;;
3997;SDS011;61314;53.444;9.902;2024-03-02T01:17:32;41.25;;;24.55;;
3997;SDS011;61314;53.444;9.902;2024-03-02T01:19:59;39.10;;;24.48;;
3997;SDS011;61314;53.444;9.902;2024-03-02T01:22:27;42.42;;;24.33;;
3997;SDS011;61314;53.444;9.902;2024-03-02T01:24:54;39.88;;;23.67;;
3997;SDS011;61314;53.444;9.902;2024-03-02T01:27:21;37.50;;;22.30;;
3997;SDS011;61314;53.444;9.902;2024-03-02T01:29:48;41.65;;;22.60;;
3997;SDS011;61314;53.444;9.902;2024-03-02T01:32:15;39.90;;;22.33;;
3997;SDS011;61314;53.444;9.902;2024-03-02T01:34:42;36.05;;;21.60;;
3997;SDS011;61314;53.444;9.902;2024-03-02T01:37:09;35.05;;;22.00;;
3997;SDS011;61314;53.444;9.902;2024-03-02T01:39:37;39.17;;;23.50;;
3997;SDS011;61314;53.444;9.902;2024-03-02T01:42:04;44.22;;;23.70;;
3997;SDS011;61314;53.444;9.902;2024-03-02T01:44:31;35.90;;;22.38;;
3997;SDS011;61314;53.444;9.902;2024-03-02T01:46:58;37.03;;;22.80;;
3997;SDS011;61314;53.444;9.902;2024-03-02T01:49:25;38.30;;;22.48;;
3997;SDS011;61314;53.444;9.902;2024-03-02T01:51:52;34.80;;;21.60;;
3997;SDS011;61314;53.444;9.902;2024-03-02T01:54:20;36.53;;;21.83;;
3997;SDS011;61314;53.444;9.902;2024-03-02T01:56:49;37.20;;;21.35;;
3997;SDS011;61314;53.444;9.902;2024-03-02T01:59:16;46.25;;;23.55;;
3997;SDS011;61314;53.444;9.902;2024-03-02T02:01:43;36.97;;;22.02;;
3997;SDS011;61314;53.444;9.902;2024-03-02T02:04:10;42.17;;;22.85;;
3997;SDS011;61314;53.444;9.902;2024-03-02T02:06:39;39.80;;;22.92;;
3997;SDS011;61314;53.444;9.902;2024-03-02T02:09:06;35.53;;;22.50;;
3997;SDS011;61314;53.444;9.902;2024-03-02T02:11:37;36.67;;;21.95;;
3997;SDS011;61314;53.444;9.902;2024-03-02T02:14:04;36.55;;;21.88;;
3997;SDS011;61314;53.444;9.902;2024-03-02T02:16:33;41.58;;;21.92;;
3997;SDS011;61314;53.444;9.902;2024-03-02T02:19:00;37.78;;;23.13;;
3997;SDS011;61314;53.444;9.902;2024-03-02T02:21:27;36.13;;;21.45;;
3997;SDS011;61314;53.444;9.902;2024-03-02T02:23:54;33.53;;;20.55;;
3997;SDS011;61314;53.444;9.902;2024-03-02T02:26:21;32.40;;;20.70;;
3997;SDS011;61314;53.444;9.902;2024-03-02T02:28:48;39.53;;;23.10;;
3997;SDS011;61314;53.444;9.902;2024-03-02T02:31:15;36.92;;;21.65;;
3997;SDS011;61314;53.444;9.902;2024-03-02T02:33:42;33.40;;;22.13;;
3997;SDS011;61314;53.444;9.902;2024-03-02T02:36:10;34.03;;;21.05;;
3997;SDS011;61314;53.444;9.902;2024-03-02T02:38:38;38.70;;;23.27;;
3997;SDS011;61314;53.444;9.902;2024-03-02T02:41:07;38.65;;;22.70;;
3997;SDS011;61314;53.444;9.902;2024-03-02T02:43:34;33.35;;;20.42;;
3997;SDS011;61314;53.444;9.902;2024-03-02T02:46:01;31.42;;;19.88;;
3997;SDS011;61314;53.444;9.902;2024-03-02T02:48:28;37.50;;;20.83;;
3997;SDS011;61314;53.444;9.902;2024-03-02T02:50:55;41.38;;;23.60;;
3997;SDS011;61314;53.444;9.902;2024-03-02T02:53:22;38.30;;;22.80;;
3997;SDS011;61314;53.444;9.902;2024-03-02T02:55:49;34.95;;;21.65;;
3997;SDS011;61314;53.444;9.902;2024-03-02T02:58:17;42.28;;;23.70;;
3997;SDS011;61314;53.444;9.902;2024-03-02T03:00:44;42.60;;;23.30;;
3997;SDS011;61314;53.444;9.902;2024-03-02T03:03:11;43.13;;;23.98;;
3997;SDS011;61314;53.444;9.902;2024-03-02T03:05:39;40.83;;;24.35;;
3997;SDS011;61314;53.444;9.902;2024-03-02T03:08:06;40.45;;;24.88;;
3997;SDS011;61314;53.444;9.902;2024-03-02T03:10:33;43.08;;;23.35;;
3997;SDS011;61314;53.444;9.902;2024-03-02T03:13:00;40.97;;;23.80;;
3997;SDS011;61314;53.444;9.902;2024-03-02T03:15:27;41.60;;;23.48;;
3997;SDS011;61314;53.444;9.902;2024-03-02T03:17:54;45.30;;;25.42;;
3997;SDS011;61314;53.444;9.902;2024-03-02T03:20:22;42.55;;;23.52;;
3997;SDS011;61314;53.444;9.902;2024-03-02T03:22:49;39.15;;;23.23;;
3997;SDS011;61314;53.444;9.902;2024-03-02T03:25:16;41.38;;;23.25;;
3997;SDS011;61314;53.444;9.902;2024-03-02T03:27:44;44.05;;;24.75;;
3997;SDS011;61314;53.444;9.902;2024-03-02T03:30:12;39.97;;;24.50;;
3997;SDS011;61314;53.444;9.902;2024-03-02T03:32:39;43.42;;;24.70;;
3997;SDS011;61314;53.444;9.902;2024-03-02T03:35:07;40.00;;;23.90;;
3997;SDS011;61314;53.444;9.902;2024-03-02T03:37:35;48.75;;;24.17;;
3997;SDS011;61314;53.444;9.902;2024-03-02T03:40:02;45.33;;;25.02;;
3997;SDS011;61314;53.444;9.902;2024-03-02T03:42:34;43.28;;;25.70;;
3997;SDS011;61314;53.444;9.902;2024-03-02T03:45:02;43.55;;;25.70;;
3997;SDS011;61314;53.444;9.902;2024-03-02T03:47:30;39.85;;;24.40;;
3997;SDS011;61314;53.444;9.902;2024-03-02T03:49:58;42.67;;;24.58;;
3997;SDS011;61314;53.444;9.902;2024-03-02T03:52:25;43.88;;;25.23;;
3997;SDS011;61314;53.444;9.902;2024-03-02T03:54:52;40.60;;;24.67;;
3997;SDS011;61314;53.444;9.902;2024-03-02T03:57:19;44.38;;;25.00;;
3997;SDS011;61314;53.444;9.902;2024-03-02T03:59:47;44.47;;;25.10;;
3997;SDS011;61314;53.444;9.902;2024-03-02T04:02:14;43.13;;;25.55;;
3997;SDS011;61314;53.444;9.902;2024-03-02T04:04:41;47.38;;;25.60;;
3997;SDS011;61314;53.444;9.902;2024-03-02T04:07:09;40.28;;;24.92;;
3997;SDS011;61314;53.444;9.902;2024-03-02T04:09:36;46.83;;;26.25;;
3997;SDS011;61314;53.444;9.902;2024-03-02T04:12:04;47.65;;;26.08;;
3997;SDS011;61314;53.444;9.902;2024-03-02T04:14:31;42.25;;;26.55;;
3997;SDS011;61314;53.444;9.902;2024-03-02T04:16:58;52.38;;;27.23;;
3997;SDS011;61314;53.444;9.902;2024-03-02T04:19:25;46.78;;;26.23;;
3997;SDS011;61314;53.444;9.902;2024-03-02T04:21:52;48.53;;;28.60;;
3997;SDS011;61314;53.444;9.902;2024-03-02T04:24:19;48.33;;;27.48;;
3997;SDS011;61314;53.444;9.902;2024-03-02T04:26:47;44.40;;;26.02;;
3997;SDS011;61314;53.444;9.902;2024-03-02T04:29:14;48.30;;;26.30;;
3997;SDS011;61314;53.444;9.902;2024-03-02T04:31:41;47.40;;;27.52;;
3997;SDS011;61314;53.444;9.902;2024-03-02T04:34:08;47.35;;;25.55;;
3997;SDS011;61314;53.444;9.902;2024-03-02T04:36:36;41.92;;;24.40;;
3997;SDS011;61314;53.444;9.902;2024-03-02T04:39:03;48.63;;;27.73;;
3997;SDS011;61314;53.444;9.902;2024-03-02T04:41:31;40.25;;;24.55;;
3997;SDS011;61314;53.444;9.902;2024-03-02T04:43:58;50.92;;;26.42;;
3997;SDS011;61314;53.444;9.902;2024-03-02T04:46:25;43.85;;;26.38;;
3997;SDS011;61314;53.444;9.902;2024-03-02T04:48:52;43.33;;;25.65;;
3997;SDS011;61314;53.444;9.902;2024-03-02T04:51:22;49.22;;;28.65;;
3997;SDS011;61314;53.444;9.902;2024-03-02T04:53:49;48.67;;;26.90;;
3997;SDS011;61314;53.444;9.902;2024-03-02T04:56:16;47.63;;;26.63;;
3997;SDS011;61314;53.444;9.902;2024-03-02T04:58:58;46.25;;;25.33;;
3997;SDS011;61314;53.444;9.902;2024-03-02T05:01:25;54.70;;;25.77;;
3997;SDS011;61314;53.444;9.902;2024-03-02T05:03:52;45.13;;;26.23;;
3997;SDS011;61314;53.444;9.902;2024-03-02T05:06:20;44.55;;;26.52;;
3997;SDS011;61314;53.444;9.902;2024-03-02T05:08:47;40.38;;;24.15;;
3997;SDS011;61314;53.444;9.902;2024-03-02T05:11:14;43.20;;;25.95;;
3997;SDS011;61314;53.444;9.902;2024-03-02T05:14:00;47.97;;;26.63;;
3997;SDS011;61314;53.444;9.902;2024-03-02T05:16:27;41.70;;;26.10;;
3997;SDS011;61314;53.444;9.902;2024-03-02T05:18:54;42.13;;;26.75;;
3997;SDS011;61314;53.444;9.902;2024-03-02T05:21:22;48.83;;;26.00;;
3997;SDS011;61314;53.444;9.902;2024-03-02T05:23:49;42.13;;;24.63;;
3997;SDS011;61314;53.444;9.902;2024-03-02T05:26:16;43.80;;;25.00;;
3997;SDS011;61314;53.444;9.902;2024-03-02T05:28:43;45.42;;;24.90;;
3997;SDS011;61314;53.444;9.902;2024-03-02T05:31:10;46.55;;;26.42;;
3997;SDS011;61314;53.444;9.902;2024-03-02T05:33:38;47.63;;;26.98;;
3997;SDS011;61314;53.444;9.902;2024-03-02T05:36:05;39.20;;;25.50;;
3997;SDS011;61314;53.444;9.902;2024-03-02T05:38:36;43.35;;;25.55;;
3997;SDS011;61314;53.444;9.902;2024-03-02T05:41:03;40.83;;;25.35;;
3997;SDS011;61314;53.444;9.902;2024-03-02T05:43:31;42.17;;;25.13;;
3997;SDS011;61314;53.444;9.902;2024-03-02T05:45:58;46.85;;;27.00;;
3997;SDS011;61314;53.444;9.902;2024-03-02T05:48:25;43.55;;;25.13;;
3997;SDS011;61314;53.444;9.902;2024-03-02T05:50:52;44.15;;;25.80;;
3997;SDS011;61314;53.444;9.902;2024-03-02T05:53:19;39.22;;;25.40;;
3997;SDS011;61314;53.444;9.902;2024-03-02T05:55:46;49.30;;;28.25;;
3997;SDS011;61314;53.444;9.902;2024-03-02T05:58:19;44.47;;;25.75;;
3997;SDS011;61314;53.444;9.902;2024-03-02T06:01:05;42.63;;;23.92;;
3997;SDS011;61314;53.444;9.902;2024-03-02T06:03:32;39.75;;;24.70;;
3997;SDS011;61314;53.444;9.902;2024-03-02T06:05:59;42.08;;;24.58;;
3997;SDS011;61314;53.444;9.902;2024-03-02T06:08:26;42.35;;;24.52;;
3997;SDS011;61314;53.444;9.902;2024-03-02T06:10:54;47.88;;;25.80;;
3997;SDS011;61314;53.444;9.902;2024-03-02T06:13:22;47.95;;;25.13;;
3997;SDS011;61314;53.444;9.902;2024-03-02T06:15:49;41.40;;;25.38;;
3997;SDS011;61314;53.444;9.902;2024-03-02T06:18:16;40.33;;;24.70;;
3997;SDS011;61314;53.444;9.902;2024-03-02T06:20:44;38.75;;;23.30;;
3997;SDS011;61314;53.444;9.902;2024-03-02T06:23:11;40.67;;;24.73;;
3997;SDS011;61314;53.444;9.902;2024-03-02T06:25:38;41.58;;;23.85;;
3997;SDS011;61314;53.444;9.902;2024-03-02T06:28:05;41.17;;;24.92;;
3997;SDS011;61314;53.444;9.902;2024-03-02T06:30:33;38.15;;;23.30;;
3997;SDS011;61314;53.444;9.902;2024-03-02T06:33:00;38.85;;;24.02;;
3997;SDS011;61314;53.444;9.902;2024-03-02T06:35:29;37.13;;;23.02;;
3997;SDS011;61314;53.444;9.902;2024-03-02T06:37:56;42.22;;;23.80;;
3997;SDS011;61314;53.444;9.902;2024-03-02T06:40:24;38.42;;;23.50;;
3997;SDS011;61314;53.444;9.902;2024-03-02T06:42:51;44.90;;;24.40;;
3997;SDS011;61314;53.444;9.902;2024-03-02T06:45:18;38.08;;;23.15;;
3997;SDS011;61314;53.444;9.902;2024-03-02T06:47:45;44.63;;;25.33;;
3997;SDS011;61314;53.444;9.902;2024-03-02T06:50:12;40.47;;;24.65;;
3997;SDS011;61314;53.444;9.902;2024-03-02T06:52:39;40.10;;;24.55;;
3997;SDS011;61314;53.444;9.902;2024-03-02T06:55:06;38.67;;;22.85;;
3997;SDS011;61314;53.444;9.902;2024-03-02T06:57:33;38.95;;;24.85;;
3997;SDS011;61314;53.444;9.902;2024-03-02T07:00:01;34.50;;;22.88;;
3997;SDS011;61314;53.444;9.902;2024-03-02T07:02:31;40.97;;;24.63;;
3997;SDS011;61314;53.444;9.902;2024-03-02T07:04:58;45.00;;;26.25;;
3997;SDS011;61314;53.444;9.902;2024-03-02T07:07:25;41.08;;;23.65;;
3997;SDS011;61314;53.444;9.902;2024-03-02T07:09:53;45.67;;;25.50;;
3997;SDS011;61314;53.444;9.902;2024-03-02T07:12:20;43.28;;;24.35;;
3997;SDS011;61314;53.444;9.902;2024-03-02T07:14:47;46.13;;;25.15;;
3997;SDS011;61314;53.444;9.902;2024-03-02T07:17:37;44.95;;;25.55;;
3997;SDS011;61314;53.444;9.902;2024-03-02T07:20:04;40.05;;;24.90;;
3997;SDS011;61314;53.444;9.902;2024-03-02T07:22:32;45.08;;;25.00;;
3997;SDS011;61314;53.444;9.902;2024-03-02T07:24:59;39.00;;;23.30;;
3997;SDS011;61314;53.444;9.902;2024-03-02T07:27:27;39.33;;;23.77;;
3997;SDS011;61314;53.444;9.902;2024-03-02T07:29:54;42.35;;;24.50;;
3997;SDS011;61314;53.444;9.902;2024-03-02T07:32:21;43.08;;;24.67;;
3997;SDS011;61314;53.444;9.902;2024-03-02T07:34:48;46.50;;;24.58;;
3997;SDS011;61314;53.444;9.902;2024-03-02T07:37:17;47.63;;;26.20;;
3997;SDS011;61314;53.444;9.902;2024-03-02T07:39:44;40.83;;;24.80;;
3997;SDS011;61314;53.444;9.902;2024-03-02T07:42:11;40.35;;;23.63;;
3997;SDS011;61314;53.444;9.902;2024-03-02T07:44:39;46.03;;;23.45;;
3997;SDS011;61314;53.444;9.902;2024-03-02T07:47:07;33.72;;;22.63;;
3997;SDS011;61314;53.444;9.902;2024-03-02T07:49:34;37.22;;;22.70;;
3997;SDS011;61314;53.444;9.902;2024-03-02T07:52:01;38.25;;;23.45;;
3997;SDS011;61314;53.444;9.902;2024-03-02T07:54:28;35.25;;;21.35;;
3997;SDS011;61314;53.444;9.902;2024-03-02T07:56:56;35.33;;;22.35;;
3997;SDS011;61314;53.444;9.902;2024-03-02T07:59:23;40.83;;;24.45;;
3997;SDS011;61314;53.444;9.902;2024-03-02T08:01:50;34.35;;;22.42;;
3997;SDS011;61314;53.444;9.902;2024-03-02T08:04:17;37.30;;;21.67;;
3997;SDS011;61314;53.444;9.902;2024-03-02T08:06:45;34.17;;;21.58;;
3997;SDS011;61314;53.444;9.902;2024-03-02T08:09:12;38.17;;;22.58;;
3997;SDS011;61314;53.444;9.902;2024-03-02T08:11:39;36.90;;;21.35;;
3997;SDS011;61314;53.444;9.902;2024-03-02T08:14:06;40.47;;;22.13;;
3997;SDS011;61314;53.444;9.902;2024-03-02T08:16:33;35.00;;;21.35;;
3997;SDS011;61314;53.444;9.902;2024-03-02T08:19:01;40.08;;;20.65;;
3997;SDS011;61314;53.444;9.902;2024-03-02T08:21:28;33.17;;;21.88;;
3997;SDS011;61314;53.444;9.902;2024-03-02T08:23:57;35.47;;;22.60;;
3997;SDS011;61314;53.444;9.902;2024-03-02T08:26:24;35.25;;;21.00;;
3997;SDS011;61314;53.444;9.902;2024-03-02T08:28:55;37.45;;;21.75;;
3997;SDS011;61314;53.444;9.902;2024-03-02T08:31:22;37.03;;;21.65;;
3997;SDS011;61314;53.444;9.902;2024-03-02T08:33:49;34.42;;;20.38;;
3997;SDS011;61314;53.444;9.902;2024-03-02T08:36:16;39.42;;;21.63;;
3997;SDS011;61314;53.444;9.902;2024-03-02T08:38:43;35.80;;;21.23;;
3997;SDS011;61314;53.444;9.902;2024-03-02T08:41:10;38.50;;;22.15;;
3997;SDS011;61314;53.444;9.902;2024-03-02T08:43:40;44.55;;;21.55;;
3997;SDS011;61314;53.444;9.902;2024-03-02T08:46:08;35.60;;;21.20;;
3997;SDS011;61314;53.444;9.902;2024-03-02T08:48:35;34.47;;;21.98;;
3997;SDS011;61314;53.444;9.902;2024-03-02T08:51:02;40.00;;;23.05;;
3997;SDS011;61314;53.444;9.902;2024-03-02T08:53:32;34.15;;;20.75;;
3997;SDS011;61314;53.444;9.902;2024-03-02T08:55:59;35.13;;;22.33;;
3997;SDS011;61314;53.444;9.902;2024-03-02T08:58:28;33.38;;;20.13;;
3997;SDS011;61314;53.444;9.902;2024-03-02T09:00:55;35.65;;;21.67;;
3997;SDS011;61314;53.444;9.902;2024-03-02T09:03:22;37.45;;;23.48;;
3997;SDS011;61314;53.444;9.902;2024-03-02T09:05:49;33.05;;;21.80;;
3997;SDS011;61314;53.444;9.902;2024-03-02T09:08:17;40.75;;;20.75;;
3997;SDS011;61314;53.444;9.902;2024-03-02T09:10:44;30.58;;;20.45;;
3997;SDS011;61314;53.444;9.902;2024-03-02T09:13:11;32.25;;;20.90;;
3997;SDS011;61314;53.444;9.902;2024-03-02T09:15:38;31.85;;;21.67;;
3997;SDS011;61314;53.444;9.902;2024-03-02T09:18:06;34.65;;;18.95;;
3997;SDS011;61314;53.444;9.902;2024-03-02T09:20:33;36.53;;;20.70;;
3997;SDS011;61314;53.444;9.902;2024-03-02T09:23:00;36.13;;;19.93;;
3997;SDS011;61314;53.444;9.902;2024-03-02T09:25:27;29.40;;;19.17;;
3997;SDS011;61314;53.444;9.902;2024-03-02T09:27:54;33.80;;;19.70;;
3997;SDS011;61314;53.444;9.902;2024-03-02T09:30:23;35.10;;;20.73;;
3997;SDS011;61314;53.444;9.902;2024-03-02T09:32:50;30.58;;;19.20;;
3997;SDS011;61314;53.444;9.902;2024-03-02T09:35:17;29.63;;;19.08;;
3997;SDS011;61314;53.444;9.902;2024-03-02T09:37:44;33.10;;;19.17;;
3997;SDS011;61314;53.444;9.902;2024-03-02T09:40:11;28.40;;;18.60;;
3997;SDS011;61314;53.444;9.902;2024-03-02T09:42:38;37.93;;;19.67;;
3997;SDS011;61314;53.444;9.902;2024-03-02T09:45:06;30.60;;;18.73;;
3997;SDS011;61314;53.444;9.902;2024-03-02T09:47:33;26.10;;;17.23;;
3997;SDS011;61314;53.444;9.902;2024-03-02T09:50:00;24.47;;;15.87;;
3997;SDS011;61314;53.444;9.902;2024-03-02T09:52:28;30.97;;;17.87;;
3997;SDS011;61314;53.444;9.902;2024-03-02T09:54:55;27.13;;;16.50;;
3997;SDS011;61314;53.444;9.902;2024-03-02T09:57:22;26.90;;;17.45;;
3997;SDS011;61314;53.444;9.902;2024-03-02T09:59:49;28.30;;;16.43;;
3997;SDS011;61314;53.444;9.902;2024-03-02T10:02:16;21.63;;;15.57;;
3997;SDS011;61314;53.444;9.902;2024-03-02T10:04:44;20.97;;;15.50;;
3997;SDS011;61314;53.444;9.902;2024-03-02T10:07:17;23.07;;;15.40;;
3997;SDS011;61314;53.444;9.902;2024-03-02T10:09:45;26.03;;;15.93;;
3997;SDS011;61314;53.444;9.902;2024-03-02T10:12:13;23.43;;;14.67;;
3997;SDS011;61314;53.444;9.902;2024-03-02T10:14:40;20.67;;;14.73;;
3997;SDS011;61314;53.444;9.902;2024-03-02T10:17:09;18.73;;;13.17;;
3997;SDS011;61314;53.444;9.902;2024-03-02T10:19:36;19.83;;;13.27;;
3997;SDS011;61314;53.444;9.902;2024-03-02T10:22:05;32.50;;;14.30;;
3997;SDS011;61314;53.444;9.902;2024-03-02T10:27:17;17.05;;;12.57;;
3997;SDS011;61314;53.444;9.902;2024-03-02T10:29:45;20.10;;;12.30;;
3997;SDS011;61314;53.444;9.902;2024-03-02T10:32:13;15.60;;;11.60;;
3997;SDS011;61314;53.444;9.902;2024-03-02T10:34:40;18.37;;;13.10;;
3997;SDS011;61314;53.444;9.902;2024-03-02T10:37:08;21.70;;;14.33;;
3997;SDS011;61314;53.444;9.902;2024-03-02T10:39:35;19.80;;;12.97;;
3997;SDS011;61314;53.444;9.902;2024-03-02T10:42:02;15.10;;;13.03;;
3997;SDS011;61314;53.444;9.902;2024-03-02T10:44:30;18.17;;;11.60;;
3997;SDS011;61314;53.444;9.902;2024-03-02T10:47:03;18.90;;;12.63;;
3997;SDS011;61314;53.444;9.902;2024-03-02T10:49:31;16.47;;;12.17;;
3997;SDS011;61314;53.444;9.902;2024-03-02T10:51:58;16.90;;;11.60;;
3997;SDS011;61314;53.444;9.902;2024-03-02T10:54:26;15.60;;;10.60;;
3997;SDS011;61314;53.444;9.902;2024-03-02T10:56:56;17.40;;;10.60;;
3997;SDS011;61314;53.444;9.902;2024-03-02T11:01:56;16.07;;;9.90;;
3997;SDS011;61314;53.444;9.902;2024-03-02T11:04:30;13.83;;;10.30;;
3997;SDS011;61314;53.444;9.902;2024-03-02T11:07:07;16.10;;;9.37;;
3997;SDS011;61314;53.444;9.902;2024-03-02T11:09:41;15.97;;;11.10;;
3997;SDS011;61314;53.444;9.902;2024-03-02T11:14:54;14.03;;;9.47;;
3997;SDS011;61314;53.444;9.902;2024-03-02T11:17:22;20.90;;;11.70;;
3997;SDS011;61314;53.444;9.902;2024-03-02T11:19:50;14.33;;;9.63;;
3997;SDS011;61314;53.444;9.902;2024-03-02T11:22:17;15.23;;;9.80;;
3997;SDS011;61314;53.444;9.902;2024-03-02T11:24:49;11.60;;;9.00;;
3997;SDS011;61314;53.444;9.902;2024-03-02T11:30:03;13.13;;;8.90;;
3997;SDS011;61314;53.444;9.902;2024-03-02T11:32:34;11.63;;;9.53;;
3997;SDS011;61314;53.444;9.902;2024-03-02T11:35:01;13.93;;;10.00;;
3997;SDS011;61314;53.444;9.902;2024-03-02T11:37:29;14.57;;;9.50;;
3997;SDS011;61314;53.444;9.902;2024-03-02T11:39:57;14.53;;;9.03;;
3997;SDS011;61314;53.444;9.902;2024-03-02T11:42:24;12.60;;;9.67;;
3997;SDS011;61314;53.444;9.902;2024-03-02T11:44:51;12.27;;;9.33;;
3997;SDS011;61314;53.444;9.902;2024-03-02T11:47:23;12.27;;;9.60;;
3997;SDS011;61314;53.444;9.902;2024-03-02T11:49:50;11.23;;;9.00;;
3997;SDS011;61314;53.444;9.902;2024-03-02T11:52:18;14.63;;;9.67;;
3997;SDS011;61314;53.444;9.902;2024-03-02T11:54:46;13.90;;;7.97;;
3997;SDS011;61314;53.444;9.902;2024-03-02T11:57:20;11.67;;;8.50;;
3997;SDS011;61314;53.444;9.902;2024-03-02T11:59:50;18.20;;;8.30;;
3997;SDS011;61314;53.444;9.902;2024-03-02T12:02:20;12.50;;;8.57;;
3997;SDS011;61314;53.444;9.902;2024-03-02T12:04:49;11.87;;;8.87;;
3997;SDS011;61314;53.444;9.902;2024-03-02T12:07:19;13.67;;;9.27;;
3997;SDS011;61314;53.444;9.902;2024-03-02T12:09:48;17.47;;;9.70;;
3997;SDS011;61314;53.444;9.902;2024-03-02T12:12:16;10.80;;;8.77;;
3997;SDS011;61314;53.444;9.902;2024-03-02T12:14:51;9.47;;;7.23;;
3997;SDS011;61314;53.444;9.902;2024-03-02T12:17:22;11.20;;;7.60;;
3997;SDS011;61314;53.444;9.902;2024-03-02T12:19:49;12.10;;;7.13;;
3997;SDS011;61314;53.444;9.902;2024-03-02T12:22:16;11.80;;;7.70;;
3997;SDS011;61314;53.444;9.902;2024-03-02T12:24:44;10.23;;;7.80;;
3997;SDS011;61314;53.444;9.902;2024-03-02T12:27:12;13.00;;;7.70;;
3997;SDS011;61314;53.444;9.902;2024-03-02T12:29:40;8.27;;;6.63;;
3997;SDS011;61314;53.444;9.902;2024-03-02T12:32:07;10.90;;;7.07;;
3997;SDS011;61314;53.444;9.902;2024-03-02T12:34:34;11.70;;;7.97;;
3997;SDS011;61314;53.444;9.902;2024-03-02T12:37:02;9.40;;;6.80;;
3997;SDS011;61314;53.444;9.902;2024-03-02T12:39:29;10.20;;;7.57;;
3997;SDS011;61314;53.444;9.902;2024-03-02T12:41:59;7.97;;;6.27;;
3997;SDS011;61314;53.444;9.902;2024-03-02T12:44:26;9.73;;;6.07;;
3997;SDS011;61314;53.444;9.902;2024-03-02T12:46:53;10.57;;;7.20;;
3997;SDS011;61314;53.444;9.902;2024-03-02T12:49:25;9.70;;;6.70;;
3997;SDS011;61314;53.444;9.902;2024-03-02T12:51:54;9.90;;;7.33;;
3997;SDS011;61314;53.444;9.902;2024-03-02T12:54:24;8.93;;;7.03;;
3997;SDS011;61314;53.444;9.902;2024-03-02T12:56:53;10.20;;;6.77;;
3997;SDS011;61314;53.444;9.902;2024-03-02T12:59:21;13.33;;;7.10;;
3997;SDS011;61314;53.444;9.902;2024-03-02T13:01:53;11.50;;;7.77;;
3997;SDS011;61314;53.444;9.902;2024-03-02T13:04:27;14.40;;;8.50;;
3997;SDS011;61314;53.444;9.902;2024-03-02T13:06:55;13.80;;;8.77;;
3997;SDS011;61314;53.444;9.902;2024-03-02T13:09:24;10.07;;;8.57;;
3997;SDS011;61314;53.444;9.902;2024-03-02T13:11:51;12.90;;;8.03;;
3997;SDS011;61314;53.444;9.902;2024-03-02T13:14:21;9.63;;;7.50;;
3997;SDS011;61314;53.444;9.902;2024-03-02T13:16:51;11.70;;;8.47;;
3997;SDS011;61314;53.444;9.902;2024-03-02T13:19:18;11.93;;;8.63;;
3997;SDS011;61314;53.444;9.902;2024-03-02T13:21:46;12.87;;;8.47;;
3997;SDS011;61314;53.444;9.902;2024-03-02T13:24:13;12.20;;;8.10;;
3997;SDS011;61314;53.444;9.902;2024-03-02T13:26:40;10.87;;;7.23;;
3997;SDS011;61314;53.444;9.902;2024-03-02T13:29:07;11.97;;;7.53;;
3997;SDS011;61314;53.444;9.902;2024-03-02T13:31:35;10.27;;;8.30;;
3997;SDS011;61314;53.444;9.902;2024-03-02T13:34:02;10.57;;;7.67;;
3997;SDS011;61314;53.444;9.902;2024-03-02T13:36:29;11.73;;;8.03;;
3997;SDS011;61314;53.444;9.902;2024-03-02T13:38:56;13.87;;;8.17;;
3997;SDS011;61314;53.444;9.902;2024-03-02T13:41:24;10.43;;;7.83;;
3997;SDS011;61314;53.444;9.902;2024-03-02T13:43:51;10.10;;;8.00;;
3997;SDS011;61314;53.444;9.902;2024-03-02T13:46:19;13.07;;;7.27;;
3997;SDS011;61314;53.444;9.902;2024-03-02T13:48:48;8.23;;;7.00;;
3997;SDS011;61314;53.444;9.902;2024-03-02T13:51:15;11.50;;;8.10;;
3997;SDS011;61314;53.444;9.902;2024-03-02T13:53:42;10.57;;;7.77;;
3997;SDS011;61314;53.444;9.902;2024-03-02T13:56:09;11.77;;;8.57;;
3997;SDS011;61314;53.444;9.902;2024-03-02T13:58:36;8.87;;;6.87;;
3997;SDS011;61314;53.444;9.902;2024-03-02T14:01:04;11.13;;;8.20;;
3997;SDS011;61314;53.444;9.902;2024-03-02T14:03:32;9.80;;;8.00;;
3997;SDS011;61314;53.444;9.902;2024-03-02T14:05:59;13.27;;;8.93;;
3997;SDS011;61314;53.444;9.902;2024-03-02T14:08:26;16.13;;;9.47;;
3997;SDS011;61314;53.444;9.902;2024-03-02T14:10:53;10.90;;;8.27;;
3997;SDS011;61314;53.444;9.902;2024-03-02T14:13:23;13.43;;;7.30;;
3997;SDS011;61314;53.444;9.902;2024-03-02T14:15:52;8.10;;;6.63;;
3997;SDS011;61314;53.444;9.902;2024-03-02T14:18:19;11.40;;;6.50;;
3997;SDS011;61314;53.444;9.902;2024-03-02T14:20:47;9.37;;;8.37;;
3997;SDS011;61314;53.444;9.902;2024-03-02T14:23:18;8.03;;;7.23;;
3997;SDS011;61314;53.444;9.902;2024-03-02T14:25:46;7.80;;;7.03;;
3997;SDS011;61314;53.444;9.902;2024-03-02T14:28:13;11.00;;;7.07;;
3997;SDS011;61314;53.444;9.902;2024-03-02T14:31:02;14.83;;;7.43;;
3997;SDS011;61314;53.444;9.902;2024-03-02T14:33:29;8.23;;;6.70;;
3997;SDS011;61314;53.444;9.902;2024-03-02T14:35:57;13.50;;;7.90;;
3997;SDS011;61314;53.444;9.902;2024-03-02T14:38:24;10.30;;;6.97;;
3997;SDS011;61314;53.444;9.902;2024-03-02T14:40:51;9.40;;;7.30;;
3997;SDS011;61314;53.444;9.902;2024-03-02T14:43:19;8.83;;;7.10;;
3997;SDS011;61314;53.444;9.902;2024-03-02T14:45:46;10.33;;;8.17;;
3997;SDS011;61314;53.444;9.902;2024-03-02T14:48:14;13.23;;;7.60;;
3997;SDS011;61314;53.444;9.902;2024-03-02T14:50:41;10.53;;;8.23;;
3997;SDS011;61314;53.444;9.902;2024-03-02T14:53:09;10.77;;;7.80;;
3997;SDS011;61314;53.444;9.902;2024-03-02T14:55:36;9.33;;;8.10;;
3997;SDS011;61314;53.444;9.902;2024-03-02T14:58:03;14.00;;;8.57;;